Time,TemperatureF,DewpointF,PressureIn,WindDirection,WindDirectionDegrees,WindSpeedMPH,WindSpeedGustMPH,Humidity,HourlyPrecipIn,Conditions,Clouds,dailyrainin,SolarRadiationWatts/m^2,SoftwareType,DateUTC
2013-02-14 00:00:00,29.4,28.3,-100.00,NNE,15,10.7,15.2,95,0.00,,,-99.99,1.0,HOBO +U30 +Weather +,2013-02-14 07:00:00,
2013-02-14 00:05:00,29.4,28.3,-100.00,NNE,14,10.7,16.3,95,0.00,,,-99.99,1.0,HOBO +U30 +Weather +,2013-02-14 07:05:00,
2013-02-14 00:10:00,29.0,28.0,-100.00,NNE,15,10.1,15.2,96,0.00,,,-99.99,1.0,HOBO +U30 +Weather +,2013-02-14 07:10:00,
2013-02-14 00:15:00,29.1,28.2,-100.00,NNE,14,7.4,11.9,96,0.00,,,-99.99,1.0,HOBO +U30 +Weather +,2013-02-14 07:15:00,
2013-02-14 00:20:00,29.3,28.4,-100.00,NNE,17,6.3,12.3,96,0.00,,,-99.99,1.0,HOBO +U30 +Weather +,2013-02-14 07:20:00,
2013-02-14 00:25:00,29.5,28.5,-100.00,NNE,18,6.7,10.1,96,0.00,,,-99.99,1.0,HOBO +U30 +Weather +,2013-02-14 07:25:00,
2013-02-14 00:30:00,29.6,28.5,-100.00,NNE,22,6.7,11.2,95,0.00,,,-99.99,1.0,HOBO +U30 +Weather +,2013-02-14 07:30:00,
2013-02-14 00:35:00,29.6,28.4,-100.00,NNE,21,6.7,10.1,95,0.00,,,-99.99,1.0,HOBO +U30 +Weather +,2013-02-14 07:35:00,
2013-02-14 00:40:00,29.7,28.3,-100.00,NNE,18,6.7,10.1,94,0.00,,,-99.99,1.0,HOBO +U30 +Weather +,2013-02-14 07:40:00,
2013-02-14 00:45:00,29.9,28.1,-100.00,NNE,20,6.3,8.9,93,0.00,,,-99.99,1.0,HOBO +U30 +Weather +,2013-02-14 07:45:00,
2013-02-14 00:50:00,30.0,28.0,-100.00,NNE,18,4.5,7.4,92,0.00,,,-99.99,1.0,HOBO +U30 +Weather +,2013-02-14 07:50:00,
2013-02-14 00:55:00,30.1,27.7,-100.00,North,8,5.1,8.5,90,0.00,,,-99.99,1.0,HOBO +U30 +Weather +,2013-02-14 07:55:00,
2013-02-14 01:00:00,30.3,26.6,-100.00,North,351,6.3,14.1,85,0.00,,,-99.99,1.0,HOBO +U30 +Weather +,2013-02-14 08:00:00,
2013-02-14 01:05:00,30.5,23.3,-100.00,NNW,338,8.5,18.1,74,0.00,,,-99.99,1.0,HOBO +U30 +Weather +,2013-02-14 08:05:00,
2013-02-14 01:10:00,30.1,22.9,-100.00,NNW,345,13.4,19.7,74,0.00,,,-99.99,1.0,HOBO +U30 +Weather +,2013-02-14 08:10:00,
2013-02-14 01:15:00,29.8,22.8,-100.00,NNW,344,11.2,17.4,74,0.00,,,-99.99,1.0,HOBO +U30 +Weather +,2013-02-14 08:15:00,
2013-02-14 01:20:00,29.7,22.8,-100.00,NNW,345,10.1,19.2,75,0.00,,,-99.99,1.0,HOBO +U30 +Weather +,2013-02-14 08:20:00,
2013-02-14 01:25:00,29.6,23.2,-100.00,NNW,341,8.9,18.6,76,0.00,,,-99.99,1.0,HOBO +U30 +Weather +,2013-02-14 08:25:00,
2013-02-14 01:30:00,29.5,22.8,-100.00,NNW,345,5.6,11.2,75,0.00,,,-99.99,1.0,HOBO +U30 +Weather +,2013-02-14 08:30:00,
2013-02-14 01:35:00,29.5,23.4,-100.00,NNW,329,6.7,10.1,77,0.00,,,-99.99,1.0,HOBO +U30 +Weather +,2013-02-14 08:35:00,
2013-02-14 01:40:00,29.7,22.1,-100.00,NNW,327,9.6,19.2,73,0.00,,,-99.99,1.0,HOBO +U30 +Weather +,2013-02-14 08:40:00,
2013-02-14 01:45:00,29.8,21.7,-100.00,NNW,327,8.5,20.8,71,0.00,,,-99.99,1.0,HOBO +U30 +Weather +,2013-02-14 08:45:00,
2013-02-14 01:50:00,29.9,21.4,-100.00,NNW,341,11.9,19.7,70,0.00,,,-99.99,1.0,HOBO +U30 +Weather +,2013-02-14 08:50:00,
2013-02-14 01:55:00,29.9,21.2,-100.00,NW,316,9.6,17.0,69,0.00,,,-99.99,1.0,HOBO +U30 +Weather +,2013-02-14 08:55:00,
2013-02-14 02:00:00,29.9,20.9,-100.00,NW,309,11.9,21.5,68,0.00,,,-99.99,1.0,HOBO +U30 +Weather +,2013-02-14 09:00:00,
2013-02-14 02:05:00,29.7,21.1,-100.00,NW,307,8.9,17.0,69,0.00,,,-99.99,1.0,HOBO +U30 +Weather +,2013-02-14 09:05:00,
2013-02-14 02:10:00,29.7,21.0,-100.00,WNW,300,11.9,20.4,69,0.00,,,-99.99,1.0,HOBO +U30 +Weather +,2013-02-14 09:10:00,
2013-02-14 02:15:00,29.8,20.6,-100.00,WNW,299,9.6,17.0,68,0.00,,,-99.99,1.0,HOBO +U30 +Weather +,2013-02-14 09:15:00,
2013-02-14 02:20:00,29.9,20.4,-100.00,NW,309,11.2,20.4,67,0.00,,,-99.99,1.0,HOBO +U30 +Weather +,2013-02-14 09:20:00,
2013-02-14 02:25:00,30.2,19.3,-100.00,NW,307,13.0,26.4,63,0.00,,,-99.99,1.0,HOBO +U30 +Weather +,2013-02-14 09:25:00,
2013-02-14 02:30:00,30.2,19.0,-100.00,NW,314,11.2,21.5,62,0.00,,,-99.99,1.0,HOBO +U30 +Weather +,2013-02-14 09:30:00,
2013-02-14 02:35:00,30.2,18.5,-100.00,NW,313,13.4,22.6,61,0.00,,,-99.99,1.0,HOBO +U30 +Weather +,2013-02-14 09:35:00,
2013-02-14 02:40:00,30.1,18.9,-100.00,NW,307,10.1,19.2,62,0.00,,,-99.99,1.0,HOBO +U30 +Weather +,2013-02-14 09:40:00,
2013-02-14 02:45:00,30.2,18.7,-100.00,WNW,298,13.4,20.8,61,0.00,,,-99.99,1.0,HOBO +U30 +Weather +,2013-02-14 09:45:00,
2013-02-14 02:50:00,30.1,18.5,-100.00,WNW,299,10.7,21.5,61,0.00,,,-99.99,1.0,HOBO +U30 +Weather +,2013-02-14 09:50:00,
2013-02-14 02:55:00,30.1,18.4,-100.00,WNW,293,11.2,19.2,61,0.00,,,-99.99,1.0,HOBO +U30 +Weather +,2013-02-14 09:55:00,
2013-02-14 03:00:00,30.1,18.2,-100.00,WNW,298,10.1,21.5,60,0.00,,,-99.99,1.0,HOBO +U30 +Weather +,2013-02-14 10:00:00,
2013-02-14 03:05:00,30.4,17.6,-100.00,WNW,300,10.7,18.6,58,0.00,,,-99.99,1.0,HOBO +U30 +Weather +,2013-02-14 10:05:00,
2013-02-14 03:10:00,30.5,17.1,-100.00,NW,305,10.1,19.2,57,0.00,,,-99.99,1.0,HOBO +U30 +Weather +,2013-02-14 10:10:00,
2013-02-14 03:15:00,30.5,17.0,-100.00,NW,305,9.6,17.4,56,0.00,,,-99.99,1.0,HOBO +U30 +Weather +,2013-02-14 10:15:00,
2013-02-14 03:35:00,30.0,18.2,-100.00,WNW,282,6.3,14.1,61,0.00,,,-99.99,1.0,HOBO +U30 +Weather +,2013-02-14 10:35:00,
2013-02-14 03:40:00,29.8,18.9,-100.00,West,272,6.3,14.5,63,0.00,,,-99.99,1.0,HOBO +U30 +Weather +,2013-02-14 10:40:00,
2013-02-14 03:45:00,29.7,19.1,-100.00,WSW,256,3.4,9.6,64,0.00,,,-99.99,1.0,HOBO +U30 +Weather +,2013-02-14 10:45:00,
2013-02-14 04:05:00,29.3,20.2,-100.00,SW,230,6.3,9.6,68,0.00,,,-99.99,1.0,HOBO +U30 +Weather +,2013-02-14 11:05:00,
2013-02-14 04:10:00,28.9,20.4,-100.00,SW,220,6.3,10.1,70,0.00,,,-99.99,1.0,HOBO +U30 +Weather +,2013-02-14 11:10:00,
2013-02-14 04:35:00,27.8,21.1,-100.00,SSE,164,7.4,11.2,75,0.00,,,-99.99,1.0,HOBO +U30 +Weather +,2013-02-14 11:35:00,
2013-02-14 04:40:00,27.8,21.1,-100.00,SSE,159,7.8,12.3,75,0.00,,,-99.99,1.0,HOBO +U30 +Weather +,2013-02-14 11:40:00,
2013-02-14 04:55:00,27.8,21.0,-100.00,SSE,167,7.8,11.9,75,0.00,,,-99.99,1.0,HOBO +U30 +Weather +,2013-02-14 11:55:00,
2013-02-14 05:00:00,28.1,20.6,-100.00,South,183,8.9,13.4,73,0.00,,,-99.99,1.0,HOBO +U30 +Weather +,2013-02-14 12:00:00,
2013-02-14 05:05:00,27.9,20.8,-100.00,South,178,7.8,13.0,74,0.00,,,-99.99,1.0,HOBO +U30 +Weather +,2013-02-14 12:05:00,
2013-02-14 05:15:00,28.0,20.6,-100.00,South,181,8.9,13.4,73,0.00,,,-99.99,1.0,HOBO +U30 +Weather +,2013-02-14 12:15:00,
2013-02-14 05:20:00,28.0,20.7,-100.00,South,190,10.1,13.4,73,0.00,,,-99.99,1.0,HOBO +U30 +Weather +,2013-02-14 12:20:00,
2013-02-14 05:25:00,28.0,20.6,-100.00,SSW,192,10.1,14.5,73,0.00,,,-99.99,1.0,HOBO +U30 +Weather +,2013-02-14 12:25:00,
2013-02-14 05:30:00,27.9,20.8,-100.00,SSW,202,8.5,13.4,74,0.00,,,-99.99,1.0,HOBO +U30 +Weather +,2013-02-14 12:30:00,
2013-02-14 05:35:00,27.8,20.9,-100.00,SSW,209,8.9,14.1,74,0.00,,,-99.99,1.0,HOBO +U30 +Weather +,2013-02-14 12:35:00,
2013-02-14 05:40:00,27.8,20.8,-100.00,SSW,211,8.5,13.0,74,0.00,,,-99.99,1.0,HOBO +U30 +Weather +,2013-02-14 12:40:00,
2013-02-14 05:45:00,27.8,20.9,-100.00,SSW,206,7.4,12.3,75,0.00,,,-99.99,1.0,HOBO +U30 +Weather +,2013-02-14 12:45:00,
2013-02-14 05:50:00,27.8,20.9,-100.00,SW,232,6.3,11.2,75,0.00,,,-99.99,1.0,HOBO +U30 +Weather +,2013-02-14 12:50:00,
2013-02-14 05:55:00,27.7,20.9,-100.00,WSW,239,5.1,9.6,75,0.00,,,-99.99,1.0,HOBO +U30 +Weather +,2013-02-14 12:55:00,
2013-02-14 06:00:00,27.8,20.6,-100.00,SW,226,7.8,12.3,74,0.00,,,-99.99,1.0,HOBO +U30 +Weather +,2013-02-14 13:00:00,
2013-02-14 06:05:00,28.1,20.5,-100.00,SW,225,4.0,10.1,73,0.00,,,-99.99,1.0,HOBO +U30 +Weather +,2013-02-14 13:05:00,
2013-02-14 06:10:00,27.6,20.4,-100.00,SSW,204,5.6,15.2,73,0.00,,,-99.99,1.0,HOBO +U30 +Weather +,2013-02-14 13:10:00,
2013-02-14 06:15:00,27.6,20.3,-100.00,South,187,7.4,14.1,73,0.00,,,-99.99,1.0,HOBO +U30 +Weather +,2013-02-14 13:15:00,
2013-02-14 06:20:00,27.6,20.5,-100.00,SSW,199,6.7,11.2,74,0.00,,,-99.99,1.0,HOBO +U30 +Weather +,2013-02-14 13:20:00,
2013-02-14 06:25:00,27.6,20.5,-100.00,SSW,202,6.7,10.1,74,0.00,,,-99.99,1.0,HOBO +U30 +Weather +,2013-02-14 13:25:00,
2013-02-14 06:30:00,27.5,20.5,-100.00,SSW,208,7.4,10.1,74,0.00,,,-99.99,1.0,HOBO +U30 +Weather +,2013-02-14 13:30:00,
2013-02-14 06:35:00,27.4,21.0,-100.00,SSW,209,5.1,8.9,76,0.00,,,-99.99,1.0,HOBO +U30 +Weather +,2013-02-14 13:35:00,
2013-02-14 06:40:00,27.2,21.0,-100.00,SSW,202,6.7,13.0,77,0.00,,,-99.99,1.0,HOBO +U30 +Weather +,2013-02-14 13:40:00,
2013-02-14 06:45:00,27.3,21.0,-100.00,SSW,192,10.7,15.9,76,0.00,,,-99.99,1.0,HOBO +U30 +Weather +,2013-02-14 13:45:00,
2013-02-14 06:55:00,27.6,20.8,-100.00,SSW,208,6.3,11.9,75,0.00,,,-99.99,1.0,HOBO +U30 +Weather +,2013-02-14 13:55:00,
2013-02-14 07:00:00,27.8,20.3,-100.00,SSW,205,7.8,12.3,73,0.00,,,-99.99,1.0,HOBO +U30 +Weather +,2013-02-14 14:00:00,
2013-02-14 07:10:00,28.1,19.8,-100.00,SW,219,4.5,8.9,70,0.00,,,-99.99,1.0,HOBO +U30 +Weather +,2013-02-14 14:10:00,
2013-02-14 07:15:00,28.2,19.7,-100.00,SW,218,7.8,11.9,70,0.00,,,-99.99,1.0,HOBO +U30 +Weather +,2013-02-14 14:15:00,
2013-02-14 07:20:00,28.3,19.2,-100.00,SW,223,8.5,13.0,68,0.00,,,-99.99,2.0,HOBO +U30 +Weather +,2013-02-14 14:20:00,
2013-02-14 07:25:00,28.4,18.8,-100.00,WSW,237,7.8,11.9,66,0.00,,,-99.99,2.0,HOBO +U30 +Weather +,2013-02-14 14:25:00,
2013-02-14 07:30:00,28.5,19.0,-100.00,SW,226,6.3,13.4,67,0.00,,,-99.99,4.0,HOBO +U30 +Weather +,2013-02-14 14:30:00,
2013-02-14 07:35:00,28.6,17.9,-100.00,WSW,243,9.6,16.3,63,0.00,,,-99.99,8.0,HOBO +U30 +Weather +,2013-02-14 14:35:00,
2013-02-14 07:40:00,28.6,17.6,-100.00,WSW,246,9.6,14.1,62,0.00,,,-99.99,11.0,HOBO +U30 +Weather +,2013-02-14 14:40:00,
2013-02-14 07:45:00,28.7,17.5,-100.00,WSW,248,7.4,13.0,62,0.00,,,-99.99,13.0,HOBO +U30 +Weather +,2013-02-14 14:45:00,
2013-02-14 07:50:00,28.8,17.4,-100.00,WSW,256,6.7,13.4,61,0.00,,,-99.99,16.0,HOBO +U30 +Weather +,2013-02-14 14:50:00,
2013-02-14 07:55:00,28.7,16.6,-100.00,West,265,8.5,16.3,60,0.00,,,-99.99,22.0,HOBO +U30 +Weather +,2013-02-14 14:55:00,
2013-02-14 08:00:00,28.7,16.5,-100.00,West,272,7.8,12.3,59,0.00,,,-99.99,26.0,HOBO +U30 +Weather +,2013-02-14 15:00:00,
2013-02-14 08:05:00,28.8,16.8,-100.00,West,271,6.3,14.5,60,0.00,,,-99.99,29.0,HOBO +U30 +Weather +,2013-02-14 15:05:00,
2013-02-14 08:10:00,28.8,16.1,-100.00,WNW,284,8.9,15.9,58,0.00,,,-99.99,31.0,HOBO +U30 +Weather +,2013-02-14 15:10:00,
2013-02-14 08:15:00,28.9,16.0,-100.00,WNW,284,7.8,14.5,58,0.00,,,-99.99,36.0,HOBO +U30 +Weather +,2013-02-14 15:15:00,
2013-02-14 08:20:00,28.9,16.2,-100.00,WNW,284,7.4,15.2,58,0.00,,,-99.99,42.0,HOBO +U30 +Weather +,2013-02-14 15:20:00,
2013-02-14 08:25:00,28.9,16.0,-100.00,West,278,5.1,17.4,58,0.00,,,-99.99,47.0,HOBO +U30 +Weather +,2013-02-14 15:25:00,
2013-02-14 08:30:00,28.9,15.6,-100.00,West,281,7.4,16.3,57,0.00,,,-99.99,53.0,HOBO +U30 +Weather +,2013-02-14 15:30:00,
2013-02-14 08:35:00,29.2,16.6,-100.00,West,278,3.4,10.1,58,0.00,,,-99.99,58.0,HOBO +U30 +Weather +,2013-02-14 15:35:00,
2013-02-14 08:40:00,29.2,16.1,-100.00,West,281,6.3,13.4,57,0.00,,,-99.99,72.0,HOBO +U30 +Weather +,2013-02-14 15:40:00,
2013-02-14 08:45:00,29.2,16.0,-100.00,WNW,284,6.3,12.3,57,0.00,,,-99.99,78.0,HOBO +U30 +Weather +,2013-02-14 15:45:00,
2013-02-14 08:50:00,29.3,15.6,-100.00,WNW,285,7.4,14.5,56,0.00,,,-99.99,82.0,HOBO +U30 +Weather +,2013-02-14 15:50:00,
2013-02-14 08:55:00,29.4,15.5,-100.00,West,275,7.4,13.4,55,0.00,,,-99.99,83.0,HOBO +U30 +Weather +,2013-02-14 15:55:00,
2013-02-14 09:00:00,29.5,15.1,-100.00,West,267,5.6,11.2,54,0.00,,,-99.99,92.0,HOBO +U30 +Weather +,2013-02-14 16:00:00,
2013-02-14 09:05:00,29.7,15.5,-100.00,West,263,5.1,11.2,54,0.00,,,-99.99,104.0,HOBO +U30 +Weather +,2013-02-14 16:05:00,
2013-02-14 09:10:00,29.8,15.2,-100.00,WSW,257,5.1,10.7,53,0.00,,,-99.99,107.0,HOBO +U30 +Weather +,2013-02-14 16:10:00,
2013-02-14 09:15:00,29.9,15.0,-100.00,WSW,253,6.3,11.2,53,0.00,,,-99.99,116.0,HOBO +U30 +Weather +,2013-02-14 16:15:00,
2013-02-14 09:20:00,30.1,15.1,-100.00,WSW,251,5.1,10.7,53,0.00,,,-99.99,114.0,HOBO +U30 +Weather +,2013-02-14 16:20:00,
2013-02-14 09:25:00,30.2,14.6,-100.00,SW,233,6.3,10.1,51,0.00,,,-99.99,113.0,HOBO +U30 +Weather +,2013-02-14 16:25:00,
2013-02-14 09:30:00,30.3,17.0,-100.00,SSW,212,4.5,7.8,57,0.00,,,-99.99,112.0,HOBO +U30 +Weather +,2013-02-14 16:30:00,
2013-02-14 09:35:00,29.9,17.5,-100.00,SSW,209,5.1,8.5,59,0.00,,,-99.99,113.0,HOBO +U30 +Weather +,2013-02-14 16:35:00,
2013-02-14 09:40:00,30.0,17.4,-100.00,SSW,213,5.1,7.4,59,0.00,,,-99.99,126.0,HOBO +U30 +Weather +,2013-02-14 16:40:00,
2013-02-14 09:45:00,30.2,17.4,-100.00,SSW,212,5.1,8.9,58,0.00,,,-99.99,132.0,HOBO +U30 +Weather +,2013-02-14 16:45:00,
2013-02-14 10:05:00,30.5,18.0,-100.00,SSW,211,5.6,9.6,59,0.00,,,-99.99,151.0,HOBO +U30 +Weather +,2013-02-14 17:05:00,
2013-02-14 10:10:00,30.7,18.1,-100.00,SSW,208,5.1,8.9,59,0.00,,,-99.99,161.0,HOBO +U30 +Weather +,2013-02-14 17:10:00,
2013-02-14 10:15:00,31.4,18.1,-100.00,SW,225,4.0,8.5,57,0.00,,,-99.99,163.0,HOBO +U30 +Weather +,2013-02-14 17:15:00,
2013-02-14 10:20:00,31.3,17.2,-100.00,SW,233,4.0,8.5,55,0.00,,,-99.99,176.0,HOBO +U30 +Weather +,2013-02-14 17:20:00,
2013-02-14 10:25:00,31.8,17.6,-100.00,SW,226,2.9,6.7,55,0.00,,,-99.99,196.0,HOBO +U30 +Weather +,2013-02-14 17:25:00,
2013-02-14 10:30:00,32.0,16.8,-100.00,SW,233,2.2,6.7,53,0.00,,,-99.99,231.0,HOBO +U30 +Weather +,2013-02-14 17:30:00,
2013-02-14 10:35:00,31.8,16.0,-100.00,SW,236,6.3,11.2,51,0.00,,,-99.99,257.0,HOBO +U30 +Weather +,2013-02-14 17:35:00,
2013-02-14 10:40:00,31.8,16.4,-100.00,SW,236,6.7,11.2,52,0.00,,,-99.99,246.0,HOBO +U30 +Weather +,2013-02-14 17:40:00,
2013-02-14 10:45:00,31.6,15.9,-100.00,WSW,246,6.3,11.2,51,0.00,,,-99.99,241.0,HOBO +U30 +Weather +,2013-02-14 17:45:00,
2013-02-14 10:50:00,31.7,16.2,-100.00,WSW,239,7.8,14.1,52,0.00,,,-99.99,247.0,HOBO +U30 +Weather +,2013-02-14 17:50:00,
2013-02-14 10:55:00,32.0,15.8,-100.00,SW,229,6.3,11.9,50,0.00,,,-99.99,263.0,HOBO +U30 +Weather +,2013-02-14 17:55:00,
2013-02-14 11:00:00,32.4,16.3,-100.00,SW,230,6.3,12.3,51,0.00,,,-99.99,214.0,HOBO +U30 +Weather +,2013-02-14 18:00:00,
2013-02-14 11:05:00,32.0,15.4,-100.00,SW,236,7.8,13.4,49,0.00,,,-99.99,197.0,HOBO +U30 +Weather +,2013-02-14 18:05:00,
2013-02-14 11:10:00,32.2,15.4,-100.00,WSW,244,6.7,11.9,49,0.00,,,-99.99,184.0,HOBO +U30 +Weather +,2013-02-14 18:10:00,
2013-02-14 11:15:00,32.2,15.0,-100.00,WSW,247,6.7,11.9,48,0.00,,,-99.99,169.0,HOBO +U30 +Weather +,2013-02-14 18:15:00,
2013-02-14 11:20:00,32.7,15.4,-100.00,WSW,237,5.1,9.6,48,0.00,,,-99.99,163.0,HOBO +U30 +Weather +,2013-02-14 18:20:00,
2013-02-14 11:25:00,32.7,15.2,-100.00,WSW,239,4.5,8.9,48,0.00,,,-99.99,167.0,HOBO +U30 +Weather +,2013-02-14 18:25:00,
2013-02-14 11:30:00,32.5,15.0,-100.00,WSW,253,5.6,10.1,47,0.00,,,-99.99,181.0,HOBO +U30 +Weather +,2013-02-14 18:30:00,
2013-02-14 11:35:00,32.6,14.7,-100.00,WSW,237,5.1,10.7,47,0.00,,,-99.99,193.0,HOBO +U30 +Weather +,2013-02-14 18:35:00,
2013-02-14 11:40:00,32.9,14.8,-100.00,SW,226,6.3,11.2,46,0.00,,,-99.99,191.0,HOBO +U30 +Weather +,2013-02-14 18:40:00,
2013-02-14 11:45:00,32.9,14.8,-100.00,WSW,239,4.5,8.9,46,0.00,,,-99.99,198.0,HOBO +U30 +Weather +,2013-02-14 18:45:00,
2013-02-14 11:50:00,32.8,14.3,-100.00,SW,227,5.6,10.1,45,0.00,,,-99.99,206.0,HOBO +U30 +Weather +,2013-02-14 18:50:00,
2013-02-14 11:55:00,33.2,15.1,-100.00,SW,232,5.1,10.1,46,0.00,,,-99.99,206.0,HOBO +U30 +Weather +,2013-02-14 18:55:00,
2013-02-14 12:00:00,33.1,15.0,-100.00,WSW,241,5.6,10.1,46,0.00,,,-99.99,206.0,HOBO +U30 +Weather +,2013-02-14 19:00:00,
2013-02-14 12:05:00,33.5,15.2,-100.00,WSW,253,4.0,8.5,46,0.00,,,-99.99,207.0,HOBO +U30 +Weather +,2013-02-14 19:05:00,
2013-02-14 12:10:00,33.3,15.2,-100.00,WSW,240,5.1,10.1,46,0.00,,,-99.99,202.0,HOBO +U30 +Weather +,2013-02-14 19:10:00,
2013-02-14 12:15:00,33.2,15.6,-100.00,WSW,253,6.7,11.2,47,0.00,,,-99.99,206.0,HOBO +U30 +Weather +,2013-02-14 19:15:00,
2013-02-14 12:20:00,33.0,14.4,-100.00,West,260,7.8,14.5,45,0.00,,,-99.99,221.0,HOBO +U30 +Weather +,2013-02-14 19:20:00,
2013-02-14 12:25:00,33.2,15.6,-100.00,WSW,247,7.4,11.2,47,0.00,,,-99.99,218.0,HOBO +U30 +Weather +,2013-02-14 19:25:00,
2013-02-14 12:30:00,33.2,15.2,-100.00,WSW,243,7.8,14.1,47,0.00,,,-99.99,219.0,HOBO +U30 +Weather +,2013-02-14 19:30:00,
2013-02-14 12:35:00,33.3,15.5,-100.00,WSW,241,8.5,14.1,47,0.00,,,-99.99,221.0,HOBO +U30 +Weather +,2013-02-14 19:35:00,
2013-02-14 12:40:00,33.2,14.9,-100.00,WSW,248,8.9,14.1,46,0.00,,,-99.99,212.0,HOBO +U30 +Weather +,2013-02-14 19:40:00,
2013-02-14 12:45:00,33.2,14.9,-100.00,WSW,239,8.5,14.1,46,0.00,,,-99.99,203.0,HOBO +U30 +Weather +,2013-02-14 19:45:00,
2013-02-14 12:50:00,33.6,15.7,-100.00,WSW,248,8.5,14.1,47,0.00,,,-99.99,206.0,HOBO +U30 +Weather +,2013-02-14 19:50:00,
2013-02-14 12:55:00,33.2,15.4,-100.00,WSW,248,8.5,12.3,47,0.00,,,-99.99,216.0,HOBO +U30 +Weather +,2013-02-14 19:55:00,
2013-02-14 13:00:00,33.8,16.2,-100.00,WSW,251,6.3,9.6,48,0.00,,,-99.99,218.0,HOBO +U30 +Weather +,2013-02-14 20:00:00,
2013-02-14 13:05:00,33.5,15.6,-100.00,West,268,7.8,13.4,47,0.00,,,-99.99,214.0,HOBO +U30 +Weather +,2013-02-14 20:05:00,
2013-02-14 13:10:00,33.7,15.7,-100.00,WSW,257,7.4,11.9,47,0.00,,,-99.99,229.0,HOBO +U30 +Weather +,2013-02-14 20:10:00,
2013-02-14 13:15:00,33.4,15.7,-100.00,West,261,7.8,11.9,47,0.00,,,-99.99,226.0,HOBO +U30 +Weather +,2013-02-14 20:15:00,
2013-02-14 13:20:00,33.9,16.6,-100.00,West,265,7.4,11.2,48,0.00,,,-99.99,213.0,HOBO +U30 +Weather +,2013-02-14 20:20:00,
2013-02-14 13:25:00,33.6,15.8,-100.00,WSW,246,7.4,12.3,47,0.00,,,-99.99,212.0,HOBO +U30 +Weather +,2013-02-14 20:25:00,
2013-02-14 13:30:00,33.7,16.2,-100.00,WSW,257,7.8,11.9,48,0.00,,,-99.99,199.0,HOBO +U30 +Weather +,2013-02-14 20:30:00,
2013-02-14 13:35:00,33.6,15.6,-100.00,WSW,246,8.5,13.4,47,0.00,,,-99.99,237.0,HOBO +U30 +Weather +,2013-02-14 20:35:00,
2013-02-14 13:45:00,33.7,15.5,-100.00,WSW,246,9.6,13.4,46,0.00,,,-99.99,261.0,HOBO +U30 +Weather +,2013-02-14 20:45:00,
2013-02-14 14:00:00,35.0,17.7,-100.00,WSW,258,5.1,11.2,48,0.00,,,-99.99,236.0,HOBO +U30 +Weather +,2013-02-14 21:00:00,
2013-02-14 14:05:00,34.1,15.7,-100.00,WSW,243,8.9,14.1,46,0.00,,,-99.99,242.0,HOBO +U30 +Weather +,2013-02-14 21:05:00,
2013-02-14 14:10:00,34.0,15.7,-100.00,WSW,250,8.9,15.2,46,0.00,,,-99.99,239.0,HOBO +U30 +Weather +,2013-02-14 21:10:00,
2013-02-14 14:15:00,34.0,15.4,-100.00,WSW,256,6.7,13.4,46,0.00,,,-99.99,244.0,HOBO +U30 +Weather +,2013-02-14 21:15:00,
2013-02-14 14:20:00,34.2,15.2,-100.00,WSW,257,7.4,10.7,45,0.00,,,-99.99,242.0,HOBO +U30 +Weather +,2013-02-14 21:20:00,
2013-02-14 14:25:00,33.8,14.5,-100.00,WSW,257,8.9,13.4,44,0.00,,,-99.99,237.0,HOBO +U30 +Weather +,2013-02-14 21:25:00,
2013-02-14 14:30:00,34.4,15.3,-100.00,WSW,250,6.7,13.0,45,0.00,,,-99.99,219.0,HOBO +U30 +Weather +,2013-02-14 21:30:00,
2013-02-14 14:35:00,34.5,14.9,-100.00,West,271,5.1,8.9,44,0.00,,,-99.99,213.0,HOBO +U30 +Weather +,2013-02-14 21:35:00,
2013-02-14 14:40:00,34.1,15.5,-100.00,WSW,251,7.8,12.3,46,0.00,,,-99.99,216.0,HOBO +U30 +Weather +,2013-02-14 21:40:00,
2013-02-14 14:45:00,33.8,17.3,-100.00,WSW,244,10.7,14.5,50,0.00,,,-99.99,216.0,HOBO +U30 +Weather +,2013-02-14 21:45:00,
2013-02-14 14:50:00,34.1,18.8,-100.00,WSW,241,7.4,13.0,53,0.00,,,-99.99,221.0,HOBO +U30 +Weather +,2013-02-14 21:50:00,
2013-02-14 14:55:00,33.9,18.7,-100.00,WSW,239,9.6,14.5,53,0.00,,,-99.99,222.0,HOBO +U30 +Weather +,2013-02-14 21:55:00,
2013-02-14 15:00:00,34.0,19.0,-100.00,SW,233,8.5,14.1,53,0.00,,,-99.99,213.0,HOBO +U30 +Weather +,2013-02-14 22:00:00,
2013-02-14 15:05:00,34.2,18.8,-100.00,SW,233,7.8,12.3,52,0.00,,,-99.99,202.0,HOBO +U30 +Weather +,2013-02-14 22:05:00,
2013-02-14 15:10:00,34.4,18.6,-100.00,SW,216,8.9,14.1,51,0.00,,,-99.99,188.0,HOBO +U30 +Weather +,2013-02-14 22:10:00,
2013-02-14 15:15:00,34.5,18.2,-100.00,SW,218,7.8,13.0,51,0.00,,,-99.99,184.0,HOBO +U30 +Weather +,2013-02-14 22:15:00,
2013-02-14 15:20:00,34.5,18.3,-100.00,SW,218,7.8,11.9,51,0.00,,,-99.99,178.0,HOBO +U30 +Weather +,2013-02-14 22:20:00,
2013-02-14 15:45:00,34.0,20.2,-100.00,SW,215,8.9,14.5,56,0.00,,,-99.99,133.0,HOBO +U30 +Weather +,2013-02-14 22:45:00,
2013-02-14 15:55:00,34.2,21.5,-100.00,SSW,205,6.7,10.7,59,0.00,,,-99.99,119.0,HOBO +U30 +Weather +,2013-02-14 22:55:00,
2013-02-14 16:00:00,33.3,21.0,-100.00,SSW,208,10.7,18.1,60,0.00,,,-99.99,109.0,HOBO +U30 +Weather +,2013-02-14 23:00:00,
2013-02-14 16:05:00,32.8,21.3,-100.00,SSW,205,11.9,19.7,62,0.00,,,-99.99,104.0,HOBO +U30 +Weather +,2013-02-14 23:05:00,
2013-02-14 16:10:00,32.5,21.5,-100.00,SW,219,10.1,17.4,63,0.00,,,-99.99,99.0,HOBO +U30 +Weather +,2013-02-14 23:10:00,
2013-02-14 16:15:00,32.1,21.7,-100.00,SSW,212,11.2,17.0,65,0.00,,,-99.99,91.0,HOBO +U30 +Weather +,2013-02-14 23:15:00,
2013-02-14 16:20:00,31.8,21.7,-100.00,SW,218,11.9,16.3,65,0.00,,,-99.99,82.0,HOBO +U30 +Weather +,2013-02-14 23:20:00,
2013-02-14 16:25:00,31.5,21.9,-100.00,SW,215,11.9,15.9,67,0.00,,,-99.99,73.0,HOBO +U30 +Weather +,2013-02-14 23:25:00,
2013-02-14 16:30:00,31.3,22.0,-100.00,SW,222,11.9,16.3,67,0.00,,,-99.99,63.0,HOBO +U30 +Weather +,2013-02-14 23:30:00,
2013-02-14 16:35:00,31.2,22.2,-100.00,SW,222,10.1,15.9,68,0.00,,,-99.99,54.0,HOBO +U30 +Weather +,2013-02-14 23:35:00,
2013-02-14 16:40:00,31.3,22.5,-100.00,SW,223,10.1,16.3,69,0.00,,,-99.99,51.0,HOBO +U30 +Weather +,2013-02-14 23:40:00,
2013-02-14 16:45:00,30.9,22.3,-100.00,SW,225,10.1,14.1,69,0.00,,,-99.99,44.0,HOBO +U30 +Weather +,2013-02-14 23:45:00,
2013-02-14 16:50:00,30.9,22.4,-100.00,SW,223,10.7,15.9,70,0.00,,,-99.99,32.0,HOBO +U30 +Weather +,2013-02-14 23:50:00,
2013-02-14 16:55:00,30.7,22.5,-100.00,SW,222,10.1,15.2,71,0.00,,,-99.99,23.0,HOBO +U30 +Weather +,2013-02-14 23:55:00,
2013-02-14 17:40:00,30.3,22.9,-100.00,SW,225,7.4,13.0,73,0.00,,,-99.99,1.0,HOBO +U30 +Weather +,2013-02-15 00:40:00,
2013-02-14 17:45:00,30.1,22.8,-100.00,WSW,237,7.8,13.0,73,0.00,,,-99.99,1.0,HOBO +U30 +Weather +,2013-02-15 00:45:00,
2013-02-14 17:50:00,30.0,22.8,-100.00,WSW,244,8.5,13.0,74,0.00,,,-99.99,1.0,HOBO +U30 +Weather +,2013-02-15 00:50:00,
2013-02-14 17:55:00,30.2,23.0,-100.00,WSW,241,5.6,9.6,74,0.00,,,-99.99,1.0,HOBO +U30 +Weather +,2013-02-15 00:55:00,
2013-02-14 18:10:00,30.1,22.8,-100.00,WSW,247,8.5,13.0,73,0.00,,,-99.99,1.0,HOBO +U30 +Weather +,2013-02-15 01:10:00,
2013-02-14 18:15:00,30.1,22.6,-100.00,WSW,250,7.4,13.0,73,0.00,,,-99.99,1.0,HOBO +U30 +Weather +,2013-02-15 01:15:00,
2013-02-14 18:20:00,30.1,22.5,-100.00,WSW,246,7.4,11.9,73,0.00,,,-99.99,1.0,HOBO +U30 +Weather +,2013-02-15 01:20:00,
2013-02-14 18:25:00,30.1,22.6,-100.00,WSW,244,7.8,14.5,73,0.00,,,-99.99,1.0,HOBO +U30 +Weather +,2013-02-15 01:25:00,
2013-02-14 18:30:00,29.8,22.5,-100.00,WSW,246,8.5,13.0,74,0.00,,,-99.99,1.0,HOBO +U30 +Weather +,2013-02-15 01:30:00,
2013-02-14 18:35:00,29.6,22.6,-100.00,WSW,247,7.4,11.9,74,0.00,,,-99.99,1.0,HOBO +U30 +Weather +,2013-02-15 01:35:00,
2013-02-14 18:40:00,29.4,23.2,-100.00,WSW,248,8.9,12.3,77,0.00,,,-99.99,1.0,HOBO +U30 +Weather +,2013-02-15 01:40:00,
2013-02-14 18:45:00,29.4,23.3,-100.00,WSW,247,7.4,11.9,78,0.00,,,-99.99,1.0,HOBO +U30 +Weather +,2013-02-15 01:45:00,
2013-02-14 18:50:00,29.2,23.3,-100.00,WSW,244,8.9,13.0,78,0.00,,,-99.99,1.0,HOBO +U30 +Weather +,2013-02-15 01:50:00,
2013-02-14 18:55:00,29.0,23.8,-100.00,SW,236,7.4,13.0,80,0.00,,,-99.99,1.0,HOBO +U30 +Weather +,2013-02-15 01:55:00,
2013-02-14 19:00:00,28.9,23.9,-100.00,WSW,247,7.8,14.5,81,0.00,,,-99.99,1.0,HOBO +U30 +Weather +,2013-02-15 02:00:00,
2013-02-14 19:05:00,28.7,24.1,-100.00,WSW,246,8.5,13.0,82,0.00,,,-99.99,1.0,HOBO +U30 +Weather +,2013-02-15 02:05:00,
2013-02-14 19:10:00,28.6,24.5,-100.00,WSW,251,8.9,13.0,84,0.00,,,-99.99,1.0,HOBO +U30 +Weather +,2013-02-15 02:10:00,
2013-02-14 19:15:00,28.5,24.6,-100.00,WSW,253,6.7,10.7,84,0.00,,,-99.99,1.0,HOBO +U30 +Weather +,2013-02-15 02:15:00,
2013-02-14 19:20:00,28.5,24.6,-100.00,WSW,253,6.7,11.2,85,0.00,,,-99.99,1.0,HOBO +U30 +Weather +,2013-02-15 02:20:00,
2013-02-14 19:25:00,28.2,25.1,-100.00,WSW,248,7.4,11.2,87,0.00,,,-99.99,1.0,HOBO +U30 +Weather +,2013-02-15 02:25:00,
2013-02-14 19:30:00,27.8,25.4,-100.00,WSW,247,8.9,14.1,90,0.00,,,-99.99,1.0,HOBO +U30 +Weather +,2013-02-15 02:30:00,
2013-02-14 19:35:00,27.6,25.7,-100.00,WSW,246,7.8,11.2,92,0.00,,,-99.99,1.0,HOBO +U30 +Weather +,2013-02-15 02:35:00,
2013-02-14 19:40:00,27.4,25.8,-100.00,WSW,248,7.4,11.2,93,0.00,,,-99.99,1.0,HOBO +U30 +Weather +,2013-02-15 02:40:00,
2013-02-14 19:45:00,27.4,25.9,-100.00,WSW,256,5.1,8.5,94,0.00,,,-99.99,1.0,HOBO +U30 +Weather +,2013-02-15 02:45:00,
2013-02-14 19:50:00,27.4,26.1,-100.00,WSW,253,4.5,7.8,94,0.00,,,-99.99,1.0,HOBO +U30 +Weather +,2013-02-15 02:50:00,
2013-02-14 19:55:00,27.4,26.1,-100.00,WSW,246,5.1,7.8,95,0.00,,,-99.99,1.0,HOBO +U30 +Weather +,2013-02-15 02:55:00,
2013-02-14 20:00:00,27.4,26.2,-100.00,WSW,256,5.1,9.6,95,0.00,,,-99.99,1.0,HOBO +U30 +Weather +,2013-02-15 03:00:00,
2013-02-14 20:20:00,27.2,26.3,-100.00,WSW,248,6.3,11.9,96,0.00,,,-99.99,1.0,HOBO +U30 +Weather +,2013-02-15 03:20:00,
2013-02-14 20:40:00,27.3,26.4,-100.00,WSW,250,6.3,9.6,96,0.00,,,-99.99,1.0,HOBO +U30 +Weather +,2013-02-15 03:40:00,
2013-02-14 20:45:00,27.3,26.4,-100.00,WSW,243,5.1,8.5,96,0.00,,,-99.99,1.0,HOBO +U30 +Weather +,2013-02-15 03:45:00,
2013-02-14 20:50:00,27.4,26.5,-100.00,SW,236,4.0,7.4,96,0.00,,,-99.99,1.0,HOBO +U30 +Weather +,2013-02-15 03:50:00,
2013-02-14 20:55:00,27.2,26.3,-100.00,WSW,251,4.5,8.5,96,0.00,,,-99.99,1.0,HOBO +U30 +Weather +,2013-02-15 03:55:00,
2013-02-14 21:00:00,27.1,26.3,-100.00,WSW,247,5.6,8.9,96,0.00,,,-99.99,1.0,HOBO +U30 +Weather +,2013-02-15 04:00:00,
2013-02-14 21:05:00,27.4,26.5,-100.00,WSW,240,4.0,7.4,96,0.00,,,-99.99,1.0,HOBO +U30 +Weather +,2013-02-15 04:05:00,
2013-02-14 21:10:00,27.4,26.5,-100.00,SW,230,3.4,7.4,96,0.00,,,-99.99,1.0,HOBO +U30 +Weather +,2013-02-15 04:10:00,
2013-02-14 21:15:00,27.2,26.4,-100.00,WSW,253,5.6,8.9,96,0.00,,,-99.99,1.0,HOBO +U30 +Weather +,2013-02-15 04:15:00,
2013-02-14 21:20:00,27.1,26.3,-100.00,SW,236,4.0,7.4,96,0.00,,,-99.99,1.0,HOBO +U30 +Weather +,2013-02-15 04:20:00,
2013-02-14 21:25:00,27.2,26.4,-100.00,WSW,243,4.5,7.4,96,0.00,,,-99.99,1.0,HOBO +U30 +Weather +,2013-02-15 04:25:00,
2013-02-14 21:30:00,27.1,26.3,-100.00,WSW,239,6.3,10.7,96,0.00,,,-99.99,1.0,HOBO +U30 +Weather +,2013-02-15 04:30:00,
2013-02-14 21:35:00,27.3,26.5,-100.00,WSW,239,5.6,8.5,96,0.00,,,-99.99,1.0,HOBO +U30 +Weather +,2013-02-15 04:35:00,
2013-02-14 21:40:00,27.2,26.4,-100.00,WSW,239,4.5,8.5,96,0.00,,,-99.99,1.0,HOBO +U30 +Weather +,2013-02-15 04:40:00,
2013-02-14 21:45:00,27.2,26.4,-100.00,WSW,240,5.1,7.8,96,0.00,,,-99.99,1.0,HOBO +U30 +Weather +,2013-02-15 04:45:00,
2013-02-14 21:50:00,27.1,26.3,-100.00,WSW,240,5.1,8.5,96,0.00,,,-99.99,1.0,HOBO +U30 +Weather +,2013-02-15 04:50:00,
2013-02-14 22:10:00,27.2,26.4,-100.00,SW,236,5.1,9.6,96,0.00,,,-99.99,1.0,HOBO +U30 +Weather +,2013-02-15 05:10:00,
2013-02-14 22:40:00,27.3,26.2,-100.00,SW,233,4.5,8.5,95,0.00,,,-99.99,1.0,HOBO +U30 +Weather +,2013-02-15 05:40:00,
2013-02-14 22:45:00,27.2,26.0,-100.00,WSW,248,4.5,7.4,95,0.00,,,-99.99,1.0,HOBO +U30 +Weather +,2013-02-15 05:45:00,
2013-02-14 23:05:00,27.2,25.7,-100.00,WSW,247,4.5,7.4,94,0.00,,,-99.99,1.0,HOBO +U30 +Weather +,2013-02-15 06:05:00,
2013-02-14 23:25:00,27.3,25.5,-100.00,SW,236,4.0,6.7,93,0.00,,,-99.99,1.0,HOBO +U30 +Weather +,2013-02-15 06:25:00,
2013-02-14 23:30:00,27.2,25.4,-100.00,SW,233,4.0,8.9,92,0.00,,,-99.99,1.0,HOBO +U30 +Weather +,2013-02-15 06:30:00,
2013-02-14 23:50:00,27.0,25.1,-100.00,WSW,246,5.6,9.6,92,0.00,,,-99.99,1.0,HOBO +U30 +Weather +,2013-02-15 06:50:00,
2013-02-14 23:55:00,27.0,24.9,-100.00,WSW,243,7.4,11.9,91,0.00,,,-99.99,1.0,HOBO +U30 +Weather +,2013-02-15 06:55:00,